createdAt,value
2023-05-09T00:01:59.554Z,14.00
2023-05-09T00:04:35.101Z,14.00
2023-05-09T00:07:18.882Z,14.00
2023-05-09T00:09:50.761Z,14.10
2023-05-09T00:12:20.290Z,14.10
2023-05-09T00:14:55.310Z,14.10
2023-05-09T00:17:36.495Z,14.20
2023-05-09T00:20:22.709Z,14.20
2023-05-09T00:22:50.934Z,14.30
2023-05-09T00:25:25.885Z,14.20
2023-05-09T00:27:59.704Z,14.10
2023-05-09T00:30:29.172Z,14.00
2023-05-09T00:32:58.867Z,14.00
2023-05-09T00:35:28.638Z,14.00
2023-05-09T00:37:59.085Z,14.10
2023-05-09T00:40:29.649Z,14.00
2023-05-09T00:43:07.990Z,13.90
2023-05-09T00:45:48.886Z,13.90
2023-05-09T00:48:19.894Z,14.00
2023-05-09T00:50:55.490Z,13.90
2023-05-09T00:53:26.711Z,13.90
2023-05-09T00:55:59.016Z,14.00
2023-05-09T00:58:29.803Z,13.90
2023-05-09T01:01:00.149Z,13.90
2023-05-09T01:03:28.893Z,13.90
2023-05-09T01:06:08.893Z,13.80
2023-05-09T01:08:53.104Z,13.80
2023-05-09T01:11:33.696Z,13.80
2023-05-09T01:14:11.036Z,13.80
2023-05-09T01:16:55.828Z,13.80
2023-05-09T01:20:08.863Z,13.80
2023-05-09T01:22:52.147Z,13.80
2023-05-09T01:26:15.231Z,13.70
2023-05-09T01:29:17.922Z,13.70
2023-05-09T01:31:57.367Z,13.70
2023-05-09T01:34:34.652Z,13.70
2023-05-09T01:37:07.074Z,13.70
2023-05-09T01:39:45.764Z,13.60
2023-05-09T01:42:16.843Z,13.40
2023-05-09T01:44:48.811Z,13.40
2023-05-09T01:47:21.214Z,13.30
2023-05-09T01:50:04.127Z,13.30
2023-05-09T01:52:41.803Z,13.10
2023-05-09T01:55:14.127Z,13.10
2023-05-09T01:58:05.449Z,13.10
2023-05-09T02:00:48.667Z,13.00
2023-05-09T02:03:24.460Z,13.00
2023-05-09T02:05:59.192Z,12.90
2023-05-09T02:08:38.582Z,12.90
2023-05-09T02:11:10.967Z,12.90
2023-05-09T02:13:53.176Z,12.80
2023-05-09T02:16:23.187Z,12.70
2023-05-09T02:18:59.409Z,12.70
2023-05-09T02:21:29.311Z,12.70
2023-05-09T02:24:00.961Z,12.70
2023-05-09T02:26:33.076Z,12.70
2023-05-09T02:29:03.905Z,12.70
2023-05-09T02:34:37.393Z,12.60
2023-05-09T02:37:14.411Z,12.60
2023-05-09T02:39:45.107Z,12.60
2023-05-09T02:42:27.169Z,12.60
2023-05-09T02:44:59.187Z,12.50
2023-05-09T02:47:28.741Z,12.50
2023-05-09T02:50:06.201Z,12.50
2023-05-09T02:52:41.915Z,12.60
2023-05-09T02:55:14.264Z,12.50
2023-05-09T02:57:44.513Z,12.50
2023-05-09T03:00:18.221Z,12.50
2023-05-09T03:02:48.823Z,12.50
2023-05-09T03:05:28.537Z,12.50
2023-05-09T03:07:58.399Z,12.50
2023-05-09T03:10:37.896Z,12.50
2023-05-09T03:13:13.808Z,12.50
2023-05-09T03:15:42.207Z,12.40
2023-05-09T03:18:13.206Z,12.50
2023-05-09T03:20:54.485Z,12.50
2023-05-09T03:23:40.250Z,12.50
2023-05-09T03:29:02.594Z,12.40
2023-05-09T03:31:33.667Z,12.30
2023-05-09T03:36:49.450Z,12.30
2023-05-09T03:39:22.635Z,12.20
2023-05-09T03:41:58.041Z,12.20
2023-05-09T03:44:33.647Z,12.20
2023-05-09T03:47:12.418Z,12.10
2023-05-09T03:49:46.985Z,12.20
2023-05-09T03:52:26.262Z,12.20
2023-05-09T03:55:09.488Z,12.20
2023-05-09T03:57:48.866Z,12.20
2023-05-09T04:03:03.779Z,12.20
2023-05-09T04:05:35.365Z,12.20
2023-05-09T04:08:12.989Z,12.20
2023-05-09T04:10:50.216Z,12.30
2023-05-09T04:13:25.476Z,12.30
2023-05-09T04:15:53.657Z,12.30
2023-05-09T04:18:22.588Z,12.30
2023-05-09T04:20:56.484Z,12.50
2023-05-09T04:23:29.386Z,12.50
2023-05-09T04:25:58.022Z,12.70
2023-05-09T04:28:45.393Z,12.80
2023-05-09T04:31:15.186Z,12.80
2023-05-09T04:33:48.992Z,12.80
2023-05-09T04:39:09.013Z,13.00
2023-05-09T04:41:37.515Z,13.10
2023-05-09T04:44:09.512Z,13.10
2023-05-09T04:46:45.558Z,13.20
2023-05-09T04:49:22.340Z,13.20
2023-05-09T04:51:55.745Z,13.30
2023-05-09T04:54:35.968Z,13.30
2023-05-09T04:59:55.149Z,13.50
2023-05-09T05:02:33.909Z,13.50
2023-05-09T05:05:11.557Z,13.60
2023-05-09T05:07:43.171Z,13.60
2023-05-09T05:10:21.869Z,13.80
2023-05-09T05:13:03.011Z,13.80
2023-05-09T05:15:32.742Z,14.00
2023-05-09T05:18:06.543Z,14.10
2023-05-09T05:20:40.494Z,14.20
2023-05-09T05:23:09.949Z,14.30
2023-05-09T05:25:41.700Z,14.30
2023-05-09T05:28:15.250Z,14.40
2023-05-09T05:30:48.830Z,14.50
2023-05-09T05:36:03.445Z,14.70
2023-05-09T05:38:34.011Z,14.80
2023-05-09T05:41:15.678Z,14.80
2023-05-09T05:43:43.913Z,14.80
2023-05-09T05:46:18.656Z,14.80
2023-05-09T05:48:54.688Z,14.80
2023-05-09T05:51:36.261Z,14.90
2023-05-09T05:54:07.863Z,15.00
2023-05-09T05:56:44.025Z,15.10
2023-05-09T05:59:13.796Z,15.20
2023-05-09T06:01:43.201Z,15.30
2023-05-09T06:04:22.782Z,15.50
2023-05-09T06:06:55.617Z,15.60
2023-05-09T06:09:36.765Z,15.80
2023-05-09T06:12:07.468Z,15.80
2023-05-09T06:14:39.543Z,15.80
2023-05-09T06:17:09.699Z,15.90
2023-05-09T06:19:44.036Z,16.00
2023-05-09T06:22:16.917Z,16.20
2023-05-09T06:24:51.321Z,16.30
2023-05-09T06:27:58.439Z,16.30
2023-05-09T06:30:29.041Z,16.30
2023-05-09T06:33:11.404Z,16.40
2023-05-09T06:35:45.026Z,16.40
2023-05-09T06:38:13.201Z,16.50
2023-05-09T06:40:50.316Z,16.80
2023-05-09T06:43:22.078Z,16.80
2023-05-09T06:45:53.515Z,16.70
2023-05-09T06:48:29.260Z,16.80
2023-05-09T06:50:57.586Z,16.80
2023-05-09T06:53:28.048Z,17.00
2023-05-09T06:56:05.586Z,17.10
2023-05-09T06:58:35.071Z,17.30
2023-05-09T07:01:04.521Z,17.50
2023-05-09T07:03:32.847Z,17.70
2023-05-09T07:06:01.026Z,17.70
2023-05-09T07:08:29.158Z,17.80
2023-05-09T07:10:57.388Z,17.70
2023-05-09T07:13:25.631Z,17.60
2023-05-09T07:15:55.189Z,17.80
2023-05-09T07:18:23.386Z,17.80
2023-05-09T07:20:51.724Z,17.80
2023-05-09T07:23:19.906Z,17.80
2023-05-09T07:25:48.013Z,17.80
2023-05-09T07:28:16.156Z,17.90
2023-05-09T07:30:44.282Z,18.00
2023-05-09T07:33:13.801Z,18.00
2023-05-09T07:35:42.033Z,18.00
2023-05-09T07:38:11.066Z,18.00
2023-05-09T07:40:39.206Z,18.00
2023-05-09T07:43:07.354Z,18.30
2023-05-09T07:45:36.521Z,18.40
2023-05-09T07:48:05.054Z,18.40
2023-05-09T07:50:34.936Z,18.50
2023-05-09T07:53:03.095Z,18.60
2023-05-09T07:55:31.234Z,18.60
2023-05-09T07:57:59.417Z,18.80
2023-05-09T08:00:27.931Z,18.80
2023-05-09T08:02:56.269Z,18.90
2023-05-09T08:05:24.582Z,19.10
2023-05-09T08:07:54.153Z,19.20
2023-05-09T08:10:23.601Z,19.30
2023-05-09T08:12:52.378Z,19.40
2023-05-09T08:15:20.606Z,19.70
2023-05-09T08:17:50.873Z,19.70
2023-05-09T08:20:23.116Z,19.70
2023-05-09T08:23:07.171Z,19.80
2023-05-09T08:25:46.321Z,19.90
2023-05-09T08:28:19.407Z,20.10
2023-05-09T08:30:47.559Z,19.90
2023-05-09T08:33:15.758Z,19.90
2023-05-09T08:35:44.145Z,19.80
2023-05-09T08:38:12.328Z,19.90
2023-05-09T08:40:42.571Z,20.10
2023-05-09T08:43:11.748Z,20.40
2023-05-09T08:45:46.732Z,20.80
2023-05-09T08:48:16.720Z,20.90
2023-05-09T08:50:45.753Z,21.10
2023-05-09T08:53:14.692Z,20.80
2023-05-09T08:55:44.459Z,20.80
2023-05-09T08:58:14.326Z,20.50
2023-05-09T09:00:43.196Z,20.50
2023-05-09T09:03:11.665Z,20.40
2023-05-09T09:05:44.131Z,20.50
2023-05-09T09:08:12.368Z,20.70
2023-05-09T09:10:43.535Z,20.90
2023-05-09T09:13:12.605Z,21.00
2023-05-09T09:15:42.681Z,21.10
2023-05-09T09:18:13.639Z,21.20
2023-05-09T09:20:46.309Z,20.90
2023-05-09T09:23:19.793Z,20.70
2023-05-09T09:25:49.718Z,20.70
2023-05-09T09:28:18.352Z,20.80
2023-05-09T09:30:48.726Z,20.70
2023-05-09T09:33:23.599Z,20.80
2023-05-09T09:35:52.381Z,20.90
2023-05-09T09:38:21.297Z,20.90
2023-05-09T09:41:00.351Z,20.90
2023-05-09T09:43:29.968Z,21.20
2023-05-09T09:45:58.387Z,21.40
2023-05-09T09:48:34.773Z,21.30
2023-05-09T09:51:11.336Z,21.70
2023-05-09T09:53:43.421Z,21.90
2023-05-09T09:56:12.964Z,21.90
2023-05-09T09:58:41.346Z,21.70
2023-05-09T10:01:10.970Z,21.80
2023-05-09T10:03:40.362Z,21.70
2023-05-09T10:06:12.180Z,21.80
2023-05-09T10:08:40.375Z,22.00
2023-05-09T10:11:12.861Z,22.30
2023-05-09T10:13:45.235Z,22.30
2023-05-09T10:16:14.930Z,22.10
2023-05-09T10:18:44.093Z,22.10
2023-05-09T10:21:16.423Z,22.20
2023-05-09T10:23:49.885Z,22.20
2023-05-09T10:26:27.583Z,21.30
2023-05-09T10:28:59.217Z,21.40
2023-05-09T10:31:28.526Z,21.30
2023-05-09T10:33:57.261Z,20.90
2023-05-09T10:36:25.494Z,21.00
2023-05-09T10:38:56.374Z,21.00
2023-05-09T10:41:26.810Z,21.20
2023-05-09T10:43:57.642Z,21.20
2023-05-09T10:46:27.314Z,21.40
2023-05-09T10:48:55.892Z,21.80
2023-05-09T10:51:26.101Z,21.90
2023-05-09T10:53:56.009Z,22.10
2023-05-09T10:56:27.614Z,22.00
2023-05-09T10:58:55.962Z,22.20
2023-05-09T11:01:31.521Z,22.30
2023-05-09T11:04:01.136Z,22.50
2023-05-09T11:06:48.949Z,22.40
2023-05-09T11:09:33.131Z,22.30
2023-05-09T11:12:13.043Z,22.50
2023-05-09T11:14:45.694Z,22.90
2023-05-09T11:17:15.241Z,22.70
2023-05-09T11:20:01.054Z,22.70
2023-05-09T11:22:30.860Z,22.90
2023-05-09T11:25:05.714Z,23.00
2023-05-09T11:27:42.594Z,23.20
2023-05-09T11:30:14.210Z,23.30
2023-05-09T11:32:44.984Z,22.90
2023-05-09T11:35:16.005Z,22.90
2023-05-09T11:37:49.812Z,23.00
2023-05-09T11:40:19.353Z,23.00
2023-05-09T11:42:50.915Z,23.10
2023-05-09T11:45:19.572Z,23.20
2023-05-09T11:47:48.703Z,23.40
2023-05-09T11:50:19.459Z,23.60
2023-05-09T11:52:48.144Z,23.80
2023-05-09T11:55:18.827Z,23.60
2023-05-09T11:57:50.498Z,23.80
2023-05-09T12:00:19.990Z,23.90
2023-05-09T12:02:49.218Z,24.10
2023-05-09T12:05:19.314Z,24.00
2023-05-09T12:07:48.195Z,23.50
2023-05-09T12:10:18.309Z,23.70
2023-05-09T12:12:49.462Z,23.60
2023-05-09T12:15:18.866Z,23.40
2023-05-09T12:17:51.309Z,23.40
2023-05-09T12:20:20.250Z,23.50
2023-05-09T12:22:54.466Z,23.30
2023-05-09T12:25:23.933Z,23.40
2023-05-09T12:27:54.725Z,23.90
2023-05-09T12:30:23.309Z,23.80
2023-05-09T12:32:51.602Z,23.60
2023-05-09T12:35:23.493Z,23.30
2023-05-09T12:37:59.286Z,23.30
2023-05-09T12:40:27.917Z,23.50
2023-05-09T12:43:00.963Z,23.30
2023-05-09T12:45:29.267Z,23.40
2023-05-09T12:47:58.770Z,23.50
2023-05-09T12:50:34.942Z,23.60
2023-05-09T12:53:04.418Z,23.80
2023-05-09T12:55:39.626Z,23.80
2023-05-09T12:58:09.275Z,23.90
2023-05-09T13:00:44.295Z,24.00
2023-05-09T13:03:25.250Z,23.60
2023-05-09T13:05:57.184Z,23.80
2023-05-09T13:08:25.505Z,24.20
2023-05-09T13:11:00.677Z,24.20
2023-05-09T13:13:30.791Z,23.80
2023-05-09T13:15:59.499Z,23.90
2023-05-09T13:18:27.649Z,23.80
2023-05-09T13:20:55.927Z,23.60
2023-05-09T13:23:24.072Z,23.80
2023-05-09T13:25:52.259Z,23.50
2023-05-09T13:28:20.363Z,23.20
2023-05-09T13:30:49.876Z,23.20
2023-05-09T13:33:26.037Z,22.90
2023-05-09T13:35:54.959Z,22.80
2023-05-09T13:38:23.329Z,23.00
2023-05-09T13:40:51.636Z,23.00
2023-05-09T13:43:19.783Z,23.00
2023-05-09T13:45:52.017Z,23.00
2023-05-09T13:48:20.165Z,22.80
2023-05-09T13:50:48.404Z,22.90
2023-05-09T13:53:22.459Z,23.00
2023-05-09T13:55:50.583Z,23.10
2023-05-09T13:58:19.044Z,22.90
2023-05-09T14:00:47.181Z,22.80
2023-05-09T14:03:17.111Z,22.70
2023-05-09T14:05:45.316Z,22.60
2023-05-09T14:08:13.498Z,22.30
2023-05-09T14:10:41.754Z,22.10
2023-05-09T14:13:13.535Z,22.10
2023-05-09T14:15:44.565Z,22.00
2023-05-09T14:18:17.748Z,21.80
2023-05-09T14:20:48.796Z,21.30
2023-05-09T14:23:17.051Z,21.30
2023-05-09T14:25:45.332Z,21.20
2023-05-09T14:28:14.681Z,21.20
2023-05-09T14:30:44.723Z,21.10
2023-05-09T14:33:13.180Z,21.00
2023-05-09T14:35:43.351Z,20.60
2023-05-09T14:38:13.818Z,20.40
2023-05-09T14:40:42.016Z,20.20
2023-05-09T14:43:12.857Z,19.90
2023-05-09T14:45:41.038Z,19.90
2023-05-09T14:48:09.222Z,19.80
2023-05-09T14:50:39.465Z,19.70
2023-05-09T14:53:07.775Z,19.30
2023-05-09T14:55:37.315Z,19.10
2023-05-09T14:58:05.527Z,18.90
2023-05-09T15:00:34.170Z,18.70
2023-05-09T15:03:02.328Z,18.40
2023-05-09T15:05:30.649Z,18.30
2023-05-09T15:07:58.827Z,18.20
2023-05-09T15:10:27.856Z,18.20
2023-05-09T15:12:59.823Z,18.30
2023-05-09T15:15:28.706Z,18.30
2023-05-09T15:17:56.841Z,18.20
2023-05-09T15:20:25.089Z,18.30
2023-05-09T15:22:53.293Z,18.30
2023-05-09T15:25:22.203Z,18.20
2023-05-09T15:27:50.571Z,17.80
2023-05-09T15:30:20.363Z,17.60
2023-05-09T15:32:48.512Z,17.60
2023-05-09T15:35:18.450Z,17.80
2023-05-09T15:37:49.207Z,17.70
2023-05-09T15:40:17.713Z,17.80
2023-05-09T15:42:48.266Z,17.90
2023-05-09T15:45:17.992Z,17.90
2023-05-09T15:47:47.665Z,17.90
2023-05-09T15:50:16.108Z,17.90
2023-05-09T15:52:44.670Z,17.90
2023-05-09T15:55:14.129Z,17.80
2023-05-09T15:57:42.388Z,17.80
2023-05-09T16:00:11.591Z,17.50
2023-05-09T16:02:39.835Z,17.10
2023-05-09T16:05:09.868Z,16.60
2023-05-09T16:07:38.055Z,16.20
2023-05-09T16:10:07.233Z,16.00
2023-05-09T16:12:35.747Z,16.20
2023-05-09T16:15:04.568Z,16.30
2023-05-09T16:17:33.664Z,16.40
2023-05-09T16:20:02.116Z,16.40
2023-05-09T16:22:34.601Z,16.30
2023-05-09T16:25:02.706Z,16.40
2023-05-09T16:27:30.959Z,16.50
2023-05-09T16:29:59.364Z,16.40
2023-05-09T16:32:27.700Z,16.30
2023-05-09T16:34:58.629Z,16.10
2023-05-09T16:37:29.195Z,15.80
2023-05-09T16:40:01.719Z,15.80
2023-05-09T16:42:30.773Z,15.80
2023-05-09T16:45:01.935Z,15.90
2023-05-09T16:47:33.147Z,15.90
2023-05-09T16:50:01.350Z,15.80
2023-05-09T16:52:30.603Z,15.80
2023-05-09T16:55:06.585Z,15.70
2023-05-09T16:57:34.734Z,15.80
2023-05-09T17:00:02.976Z,15.70
2023-05-09T17:02:31.140Z,15.50
2023-05-09T17:04:59.754Z,15.70
2023-05-09T17:07:27.845Z,15.80
2023-05-09T17:09:55.938Z,15.80
2023-05-09T17:12:27.508Z,15.70
2023-05-09T17:14:55.780Z,15.80
2023-05-09T17:17:23.863Z,15.80
2023-05-09T17:19:52.420Z,15.70
2023-05-09T17:22:20.474Z,15.70
2023-05-09T17:24:48.790Z,15.80
2023-05-09T17:27:16.889Z,15.80
2023-05-09T17:29:46.336Z,15.70
2023-05-09T17:32:15.834Z,15.70
2023-05-09T17:34:43.946Z,15.80
2023-05-09T17:37:12.057Z,15.70
2023-05-09T17:39:42.268Z,15.60
2023-05-09T17:42:13.076Z,15.70
2023-05-09T17:44:50.129Z,15.60
2023-05-09T17:47:22.840Z,15.50
2023-05-09T17:49:55.451Z,15.40
2023-05-09T17:55:22.738Z,15.40
2023-05-09T17:57:51.012Z,15.40
2023-05-09T18:00:20.134Z,15.40
2023-05-09T18:02:51.144Z,15.40
2023-05-09T18:05:19.644Z,15.40
2023-05-09T18:07:47.799Z,15.40
2023-05-09T18:10:16.115Z,15.60
2023-05-09T18:12:45.238Z,15.60
2023-05-09T18:15:13.533Z,15.60
2023-05-09T18:17:41.669Z,15.50
2023-05-09T18:20:11.831Z,15.60
2023-05-09T18:22:39.981Z,15.40
2023-05-09T18:25:08.820Z,15.30
2023-05-09T18:27:36.982Z,15.30
2023-05-09T18:30:05.428Z,15.10
2023-05-09T18:32:33.837Z,15.10
2023-05-09T18:35:02.104Z,15.10
2023-05-09T18:37:31.600Z,15.00
2023-05-09T18:39:59.720Z,15.10
2023-05-09T18:42:28.108Z,15.20
2023-05-09T18:44:56.283Z,15.20
2023-05-09T18:47:25.094Z,15.20
2023-05-09T18:49:53.184Z,15.10
2023-05-09T18:52:22.675Z,15.20
2023-05-09T18:54:52.439Z,15.20
2023-05-09T18:57:20.945Z,15.20
2023-05-09T18:59:51.864Z,15.30
2023-05-09T19:02:20.645Z,15.30
2023-05-09T19:04:50.526Z,15.30
2023-05-09T19:07:18.728Z,15.10
2023-05-09T19:09:46.879Z,15.20
2023-05-09T19:12:17.721Z,15.10
2023-05-09T19:14:45.917Z,15.10
2023-05-09T19:17:14.065Z,15.00
2023-05-09T19:19:42.231Z,14.80
2023-05-09T19:22:10.461Z,14.80
2023-05-09T19:24:38.652Z,14.80
2023-05-09T19:27:07.668Z,14.80
2023-05-09T19:29:37.177Z,14.80
2023-05-09T19:32:07.073Z,14.80
2023-05-09T19:34:35.206Z,14.80
2023-05-09T19:37:03.640Z,14.80
2023-05-09T19:39:31.899Z,14.80
2023-05-09T19:42:00.824Z,14.80
2023-05-09T19:44:30.248Z,14.80
2023-05-09T19:47:01.009Z,14.90
2023-05-09T19:49:29.223Z,14.90
2023-05-09T19:51:57.290Z,14.90
2023-05-09T19:54:27.466Z,14.80
2023-05-09T19:56:55.522Z,14.80
2023-05-09T19:59:31.397Z,14.80
2023-05-09T20:04:50.102Z,14.80
2023-05-09T20:07:33.187Z,14.80
2023-05-09T20:10:16.806Z,14.80
2023-05-09T20:12:45.743Z,14.80
2023-05-09T20:15:17.653Z,14.80
2023-05-09T20:17:47.170Z,14.80
2023-05-09T20:20:16.855Z,14.80
2023-05-09T20:22:45.203Z,14.90
2023-05-09T20:25:13.667Z,15.00
2023-05-09T20:27:42.012Z,14.80
2023-05-09T20:30:11.269Z,14.80
2023-05-09T20:32:39.397Z,14.80
2023-05-09T20:35:08.232Z,14.90
2023-05-09T20:37:38.584Z,14.90
2023-05-09T20:40:08.562Z,14.80
2023-05-09T20:42:37.358Z,14.80
2023-05-09T20:45:06.193Z,14.80
2023-05-09T20:47:34.302Z,14.90
2023-05-09T20:50:02.437Z,14.80
2023-05-09T20:52:30.539Z,14.90
2023-05-09T20:55:00.387Z,14.80
2023-05-09T20:57:28.694Z,14.80
2023-05-09T20:59:56.853Z,14.80
2023-05-09T21:02:25.043Z,14.70
2023-05-09T21:04:53.275Z,14.60
2023-05-09T21:07:21.760Z,14.70
2023-05-09T21:09:50.843Z,14.60
2023-05-09T21:12:21.097Z,14.70
2023-05-09T21:14:50.741Z,14.70
2023-05-09T21:17:19.123Z,14.80
2023-05-09T21:19:51.460Z,14.80
2023-05-09T21:22:19.723Z,14.80
2023-05-09T21:24:47.871Z,14.90
2023-05-09T21:27:16.015Z,14.80
2023-05-09T21:29:49.160Z,14.80
2023-05-09T21:32:17.756Z,14.80
2023-05-09T21:34:45.897Z,14.70
2023-05-09T21:37:13.969Z,14.60
2023-05-09T21:39:42.136Z,14.60
2023-05-09T21:42:10.196Z,14.60
2023-05-09T21:44:38.354Z,14.60
2023-05-09T21:47:08.336Z,14.60
2023-05-09T21:49:36.634Z,14.60
2023-05-09T21:52:05.064Z,14.70
2023-05-09T21:54:33.196Z,14.70
2023-05-09T21:57:01.292Z,14.70
2023-05-09T21:59:29.372Z,15.00
2023-05-09T22:01:57.634Z,15.00
2023-05-09T22:04:27.292Z,14.90
2023-05-09T22:06:55.514Z,14.70
2023-05-09T22:09:23.948Z,14.70
2023-05-09T22:11:53.011Z,14.80
2023-05-09T22:14:21.137Z,14.60
2023-05-09T22:16:49.906Z,14.60
2023-05-09T22:19:18.498Z,14.70
2023-05-09T22:21:49.021Z,14.60
2023-05-09T22:24:17.251Z,14.80
2023-05-09T22:26:45.428Z,14.80
2023-05-09T22:29:16.508Z,14.60
2023-05-09T22:31:44.675Z,14.60
2023-05-09T22:34:12.801Z,14.60
2023-05-09T22:36:40.884Z,14.60
2023-05-09T22:39:11.157Z,14.60
2023-05-09T22:41:39.309Z,14.40
2023-05-09T22:44:07.964Z,14.30
2023-05-09T22:46:36.079Z,14.40
2023-05-09T22:49:04.249Z,14.40
2023-05-09T22:51:32.668Z,14.40
2023-05-09T22:54:00.828Z,14.40
2023-05-09T22:56:30.317Z,14.40
2023-05-09T22:58:59.379Z,14.40
2023-05-09T23:01:31.556Z,14.40
2023-05-09T23:04:23.373Z,14.40
2023-05-09T23:06:51.995Z,14.40
2023-05-09T23:09:25.572Z,14.30
2023-05-09T23:12:05.862Z,14.30
2023-05-09T23:14:33.982Z,14.30
2023-05-09T23:17:02.135Z,14.30
2023-05-09T23:19:30.220Z,14.30
2023-05-09T23:21:58.690Z,14.30
2023-05-09T23:24:26.860Z,14.20
2023-05-09T23:26:56.709Z,14.30
2023-05-09T23:29:25.214Z,14.30
2023-05-09T23:31:53.382Z,14.30
2023-05-09T23:34:21.558Z,14.30
2023-05-09T23:36:49.664Z,14.30
2023-05-09T23:39:17.762Z,14.40
2023-05-09T23:41:46.177Z,14.30
2023-05-09T23:44:15.618Z,14.40
2023-05-09T23:46:43.774Z,14.40
2023-05-09T23:49:13.308Z,14.40
2023-05-09T23:51:41.609Z,14.30
2023-05-09T23:54:09.787Z,14.40
2023-05-09T23:56:37.936Z,14.40
2023-05-09T23:59:06.114Z,14.40
